sensor_id;sensor_type;location;lat;lon;timestamp;pressure;altitude;pressure_sealevel;temperature;humidity
64521;BME280;50896;46.714;17.322;2023-01-28T00:00:53;100661.06;;;-0.24;100.00
64521;BME280;50896;46.714;17.322;2023-01-28T00:03:20;100664.69;;;-0.26;100.00
64521;BME280;50896;46.714;17.322;2023-01-28T00:05:47;100671.44;;;-0.22;100.00
64521;BME280;50896;46.714;17.322;2023-01-28T00:08:14;100672.00;;;-0.17;100.00
64521;BME280;50896;46.714;17.322;2023-01-28T00:10:41;100668.66;;;-0.19;100.00
64521;BME280;50896;46.714;17.322;2023-01-28T00:13:12;100670.16;;;-0.15;100.00
64521;BME280;50896;46.714;17.322;2023-01-28T00:15:40;100672.53;;;-0.26;100.00
64521;BME280;50896;46.714;17.322;2023-01-28T00:18:07;100674.88;;;-0.22;100.00
64521;BME280;50896;46.714;17.322;2023-01-28T00:20:34;100672.00;;;-0.17;100.00
64521;BME280;50896;46.714;17.322;2023-01-28T00:23:02;100678.84;;;-0.14;100.00
64521;BME280;50896;46.714;17.322;2023-01-28T00:25:29;100673.97;;;-0.21;100.00
64521;BME280;50896;46.714;17.322;2023-01-28T00:27:56;100679.28;;;-0.22;100.00
64521;BME280;50896;46.714;17.322;2023-01-28T00:30:23;100676.56;;;-0.21;100.00
64521;BME280;50896;46.714;17.322;2023-01-28T00:32:50;100674.06;;;-0.22;100.00
64521;BME280;50896;46.714;17.322;2023-01-28T00:35:18;100672.88;;;-0.16;100.00
64521;BME280;50896;46.714;17.322;2023-01-28T00:37:45;100679.00;;;-0.18;100.00
64521;BME280;50896;46.714;17.322;2023-01-28T00:40:13;100678.19;;;-0.18;100.00
64521;BME280;50896;46.714;17.322;2023-01-28T00:42:39;100668.56;;;-0.18;100.00
64521;BME280;50896;46.714;17.322;2023-01-28T00:45:07;100671.91;;;-0.15;100.00
64521;BME280;50896;46.714;17.322;2023-01-28T00:47:34;100667.47;;;-0.13;100.00
64521;BME280;50896;46.714;17.322;2023-01-28T00:50:01;100675.28;;;-0.13;100.00
64521;BME280;50896;46.714;17.322;2023-01-28T00:52:29;100677.41;;;-0.20;100.00
64521;BME280;50896;46.714;17.322;2023-01-28T00:54:56;100672.44;;;-0.25;100.00
64521;BME280;50896;46.714;17.322;2023-01-28T00:57:24;100678.31;;;-0.21;100.00
64521;BME280;50896;46.714;17.322;2023-01-28T00:59:51;100676.66;;;-0.22;100.00
64521;BME280;50896;46.714;17.322;2023-01-28T01:02:20;100682.53;;;-0.19;100.00
64521;BME280;50896;46.714;17.322;2023-01-28T01:04:47;100680.84;;;-0.20;100.00
64521;BME280;50896;46.714;17.322;2023-01-28T01:07:29;100670.41;;;-0.20;100.00
64521;BME280;50896;46.714;17.322;2023-01-28T01:10:15;100685.50;;;-0.25;100.00
64521;BME280;50896;46.714;17.322;2023-01-28T01:12:44;100683.00;;;-0.26;100.00
64521;BME280;50896;46.714;17.322;2023-01-28T01:15:11;100682.63;;;-0.20;100.00
64521;BME280;50896;46.714;17.322;2023-01-28T01:17:41;100679.19;;;-0.21;100.00
64521;BME280;50896;46.714;17.322;2023-01-28T01:20:13;100680.78;;;-0.18;100.00
64521;BME280;50896;46.714;17.322;2023-01-28T01:22:40;100687.78;;;-0.19;100.00
64521;BME280;50896;46.714;17.322;2023-01-28T01:25:07;100681.63;;;-0.18;100.00
64521;BME280;50896;46.714;17.322;2023-01-28T01:27:34;100677.41;;;-0.20;100.00
64521;BME280;50896;46.714;17.322;2023-01-28T01:30:01;100680.94;;;-0.21;100.00
64521;BME280;50896;46.714;17.322;2023-01-28T01:32:31;100689.47;;;-0.18;100.00
64521;BME280;50896;46.714;17.322;2023-01-28T01:34:58;100686.94;;;-0.19;100.00
64521;BME280;50896;46.714;17.322;2023-01-28T01:37:25;100691.41;;;-0.21;100.00
64521;BME280;50896;46.714;17.322;2023-01-28T01:39:53;100686.34;;;-0.24;100.00
64521;BME280;50896;46.714;17.322;2023-01-28T01:42:20;100690.84;;;-0.26;100.00
64521;BME280;50896;46.714;17.322;2023-01-28T01:45:13;100696.81;;;-0.24;100.00
64521;BME280;50896;46.714;17.322;2023-01-28T01:47:55;100701.44;;;-0.29;100.00
64521;BME280;50896;46.714;17.322;2023-01-28T01:52:55;100698.66;;;-0.26;100.00
64521;BME280;50896;46.714;17.322;2023-01-28T01:55:24;100695.28;;;-0.28;100.00
64521;BME280;50896;46.714;17.322;2023-01-28T01:57:53;100696.72;;;-0.23;100.00
64521;BME280;50896;46.714;17.322;2023-01-28T02:00:22;100705.31;;;-0.21;100.00
64521;BME280;50896;46.714;17.322;2023-01-28T02:02:50;100685.00;;;-0.31;100.00
64521;BME280;50896;46.714;17.322;2023-01-28T02:05:20;100695.19;;;-0.27;100.00
64521;BME280;50896;46.714;17.322;2023-01-28T02:07:51;100688.38;;;-0.29;100.00
64521;BME280;50896;46.714;17.322;2023-01-28T02:10:21;100691.16;;;-0.32;100.00
64521;BME280;50896;46.714;17.322;2023-01-28T02:12:54;100692.03;;;-0.32;100.00
64521;BME280;50896;46.714;17.322;2023-01-28T02:15:25;100698.75;;;-0.28;100.00
64521;BME280;50896;46.714;17.322;2023-01-28T02:17:52;100685.84;;;-0.31;100.00
64521;BME280;50896;46.714;17.322;2023-01-28T02:20:23;100690.97;;;-0.29;100.00
64521;BME280;50896;46.714;17.322;2023-01-28T02:31:55;100703.81;;;-0.25;100.00
64521;BME280;50896;46.714;17.322;2023-01-28T02:39:49;100704.63;;;-0.24;100.00
64521;BME280;50896;46.714;17.322;2023-01-28T02:42:24;100694.88;;;-0.21;100.00
64521;BME280;50896;46.714;17.322;2023-01-28T02:44:53;100697.91;;;-0.28;100.00
64521;BME280;50896;46.714;17.322;2023-01-28T02:47:21;100699.59;;;-0.27;100.00
64521;BME280;50896;46.714;17.322;2023-01-28T02:50:10;100701.28;;;-0.26;100.00
64521;BME280;50896;46.714;17.322;2023-01-28T02:55:29;100702.19;;;-0.27;100.00
64521;BME280;50896;46.714;17.322;2023-01-28T03:01:37;100705.56;;;-0.25;100.00
64521;BME280;50896;46.714;17.322;2023-01-28T03:04:22;100702.63;;;-0.19;100.00
64521;BME280;50896;46.714;17.322;2023-01-28T03:06:55;100701.84;;;-0.21;100.00
64521;BME280;50896;46.714;17.322;2023-01-28T03:09:24;100697.41;;;-0.19;100.00
64521;BME280;50896;46.714;17.322;2023-01-28T03:12:12;100709.22;;;-0.28;100.00
64521;BME280;50896;46.714;17.322;2023-01-28T03:15:20;100708.78;;;-0.20;100.00
64521;BME280;50896;46.714;17.322;2023-01-28T03:18:14;100709.78;;;-0.23;100.00
64521;BME280;50896;46.714;17.322;2023-01-28T03:24:16;100715.59;;;-0.18;100.00
64521;BME280;50896;46.714;17.322;2023-01-28T03:27:25;100703.63;;;-0.22;100.00
64521;BME280;50896;46.714;17.322;2023-01-28T03:30:27;100705.56;;;-0.25;100.00
64521;BME280;50896;46.714;17.322;2023-01-28T03:33:24;100708.34;;;-0.28;100.00
64521;BME280;50896;46.714;17.322;2023-01-28T03:36:10;100715.09;;;-0.24;100.00
64521;BME280;50896;46.714;17.322;2023-01-28T03:38:57;100718.72;;;-0.27;100.00
64521;BME280;50896;46.714;17.322;2023-01-28T03:41:25;100716.38;;;-0.31;100.00
64521;BME280;50896;46.714;17.322;2023-01-28T03:43:54;100728.34;;;-0.27;100.00
64521;BME280;50896;46.714;17.322;2023-01-28T03:46:21;100719.81;;;-0.31;100.00
64521;BME280;50896;46.714;17.322;2023-01-28T03:48:48;100730.13;;;-0.28;100.00
64521;BME280;50896;46.714;17.322;2023-01-28T03:51:15;100725.03;;;-0.31;100.00
64521;BME280;50896;46.714;17.322;2023-01-28T03:53:43;100731.13;;;-0.30;100.00
64521;BME280;50896;46.714;17.322;2023-01-28T03:56:10;100728.09;;;-0.39;100.00
64521;BME280;50896;46.714;17.322;2023-01-28T03:58:44;100735.41;;;-0.29;100.00
64521;BME280;50896;46.714;17.322;2023-01-28T04:01:22;100732.97;;;-0.32;100.00
64521;BME280;50896;46.714;17.322;2023-01-28T04:03:50;100729.44;;;-0.31;100.00
64521;BME280;50896;46.714;17.322;2023-01-28T04:06:26;100733.81;;;-0.32;100.00
64521;BME280;50896;46.714;17.322;2023-01-28T04:09:13;100730.34;;;-0.32;100.00
64521;BME280;50896;46.714;17.322;2023-01-28T04:11:52;100732.72;;;-0.28;100.00
64521;BME280;50896;46.714;17.322;2023-01-28T04:14:24;100723.94;;;-0.27;100.00
64521;BME280;50896;46.714;17.322;2023-01-28T04:17:02;100718.06;;;-0.30;100.00
64521;BME280;50896;46.714;17.322;2023-01-28T04:19:33;100732.22;;;-0.35;100.00
64521;BME280;50896;46.714;17.322;2023-01-28T04:22:07;100724.94;;;-0.29;100.00
64521;BME280;50896;46.714;17.322;2023-01-28T04:24:37;100723.84;;;-0.25;100.00
64521;BME280;50896;46.714;17.322;2023-01-28T04:27:04;100728.25;;;-0.26;100.00
64521;BME280;50896;46.714;17.322;2023-01-28T04:29:30;100725.91;;;-0.30;100.00
64521;BME280;50896;46.714;17.322;2023-01-28T04:32:09;100725.13;;;-0.32;100.00
64521;BME280;50896;46.714;17.322;2023-01-28T04:35:00;100721.69;;;-0.33;100.00
64521;BME280;50896;46.714;17.322;2023-01-28T04:37:56;100722.59;;;-0.34;100.00
64521;BME280;50896;46.714;17.322;2023-01-28T04:40:53;100723.59;;;-0.37;100.00
64521;BME280;50896;46.714;17.322;2023-01-28T04:43:25;100723.78;;;-0.40;100.00
64521;BME280;50896;46.714;17.322;2023-01-28T04:46:18;100731.63;;;-0.40;100.00
64521;BME280;50896;46.714;17.322;2023-01-28T04:49:03;100731.63;;;-0.40;100.00
64521;BME280;50896;46.714;17.322;2023-01-28T04:51:38;100729.78;;;-0.38;100.00
64521;BME280;50896;46.714;17.322;2023-01-28T04:54:17;100742.31;;;-0.44;100.00
64521;BME280;50896;46.714;17.322;2023-01-28T04:56:44;100740.63;;;-0.45;100.00
64521;BME280;50896;46.714;17.322;2023-01-28T04:59:11;100744.84;;;-0.43;100.00
64521;BME280;50896;46.714;17.322;2023-01-28T05:01:38;100746.59;;;-0.43;100.00
64521;BME280;50896;46.714;17.322;2023-01-28T05:04:05;100742.50;;;-0.47;100.00
64521;BME280;50896;46.714;17.322;2023-01-28T05:06:35;100743.94;;;-0.42;100.00
64521;BME280;50896;46.714;17.322;2023-01-28T05:09:07;100742.91;;;-0.39;100.00
64521;BME280;50896;46.714;17.322;2023-01-28T05:11:34;100750.25;;;-0.46;100.00
64521;BME280;50896;46.714;17.322;2023-01-28T05:14:04;100745.13;;;-0.47;100.00
64521;BME280;50896;46.714;17.322;2023-01-28T05:16:38;100761.53;;;-0.45;100.00
64521;BME280;50896;46.714;17.322;2023-01-28T05:19:06;100762.53;;;-0.48;100.00
64521;BME280;50896;46.714;17.322;2023-01-28T05:21:37;100758.22;;;-0.49;100.00
64521;BME280;50896;46.714;17.322;2023-01-28T05:24:10;100760.84;;;-0.49;100.00
64521;BME280;50896;46.714;17.322;2023-01-28T05:26:37;100759.75;;;-0.45;100.00
64521;BME280;50896;46.714;17.322;2023-01-28T05:29:04;100761.44;;;-0.44;100.00
64521;BME280;50896;46.714;17.322;2023-01-28T05:31:32;100766.66;;;-0.44;100.00
64521;BME280;50896;46.714;17.322;2023-01-28T05:33:59;100769.09;;;-0.41;100.00
64521;BME280;50896;46.714;17.322;2023-01-28T05:36:26;100765.75;;;-0.43;100.00
64521;BME280;50896;46.714;17.322;2023-01-28T05:38:54;100776.28;;;-0.44;100.00
64521;BME280;50896;46.714;17.322;2023-01-28T05:41:21;100777.94;;;-0.43;100.00
64521;BME280;50896;46.714;17.322;2023-01-28T05:43:54;100772.59;;;-0.40;100.00
64521;BME280;50896;46.714;17.322;2023-01-28T05:46:41;100772.50;;;-0.39;100.00
64521;BME280;50896;46.714;17.322;2023-01-28T05:49:35;100777.81;;;-0.40;100.00
64521;BME280;50896;46.714;17.322;2023-01-28T05:52:20;100777.47;;;-0.34;100.00
64521;BME280;50896;46.714;17.322;2023-01-28T05:54:47;100780.78;;;-0.30;100.00
64521;BME280;50896;46.714;17.322;2023-01-28T05:57:14;100784.31;;;-0.31;100.00
64521;BME280;50896;46.714;17.322;2023-01-28T05:59:42;100780.16;;;-0.36;100.00
64521;BME280;50896;46.714;17.322;2023-01-28T06:02:10;100790.34;;;-0.31;100.00
64521;BME280;50896;46.714;17.322;2023-01-28T06:04:37;100784.56;;;-0.36;100.00
64521;BME280;50896;46.714;17.322;2023-01-28T06:07:05;100782.94;;;-0.39;100.00
64521;BME280;50896;46.714;17.322;2023-01-28T06:09:32;100788.09;;;-0.37;100.00
64521;BME280;50896;46.714;17.322;2023-01-28T06:11:59;100791.44;;;-0.35;100.00
64521;BME280;50896;46.714;17.322;2023-01-28T06:14:27;100790.88;;;-0.40;100.00
64521;BME280;50896;46.714;17.322;2023-01-28T06:17:12;100798.34;;;-0.50;100.00
64521;BME280;50896;46.714;17.322;2023-01-28T06:19:46;100800.53;;;-0.42;100.00
64521;BME280;50896;46.714;17.322;2023-01-28T06:22:15;100808.38;;;-0.42;100.00
64521;BME280;50896;46.714;17.322;2023-01-28T06:24:42;100810.81;;;-0.39;100.00
64521;BME280;50896;46.714;17.322;2023-01-28T06:27:09;100801.25;;;-0.39;100.00
64521;BME280;50896;46.714;17.322;2023-01-28T06:29:35;100806.63;;;-0.42;100.00
64521;BME280;50896;46.714;17.322;2023-01-28T06:32:03;100814.22;;;-0.37;100.00
64521;BME280;50896;46.714;17.322;2023-01-28T06:34:30;100813.38;;;-0.38;100.00
64521;BME280;50896;46.714;17.322;2023-01-28T06:36:57;100812.94;;;-0.46;100.00
64521;BME280;50896;46.714;17.322;2023-01-28T06:39:24;100813.34;;;-0.54;100.00
64521;BME280;50896;46.714;17.322;2023-01-28T06:41:52;100813.41;;;-0.55;100.00
64521;BME280;50896;46.714;17.322;2023-01-28T06:44:19;100815.28;;;-0.57;100.00
64521;BME280;50896;46.714;17.322;2023-01-28T06:46:48;100811.56;;;-0.53;100.00
64521;BME280;50896;46.714;17.322;2023-01-28T06:49:15;100819.47;;;-0.55;100.00
64521;BME280;50896;46.714;17.322;2023-01-28T06:51:42;100814.41;;;-0.58;100.00
64521;BME280;50896;46.714;17.322;2023-01-28T06:54:09;100821.25;;;-0.55;100.00
64521;BME280;50896;46.714;17.322;2023-01-28T06:56:35;100822.78;;;-0.51;100.00
64521;BME280;50896;46.714;17.322;2023-01-28T06:59:02;100825.31;;;-0.49;100.00
64521;BME280;50896;46.714;17.322;2023-01-28T07:01:29;100829.72;;;-0.50;100.00
64521;BME280;50896;46.714;17.322;2023-01-28T07:03:56;100830.63;;;-0.51;100.00
64521;BME280;50896;46.714;17.322;2023-01-28T07:06:23;100834.22;;;-0.54;100.00
64521;BME280;50896;46.714;17.322;2023-01-28T07:08:49;100836.59;;;-0.49;100.00
64521;BME280;50896;46.714;17.322;2023-01-28T07:11:16;100841.31;;;-0.56;100.00
64521;BME280;50896;46.714;17.322;2023-01-28T07:13:43;100840.16;;;-0.50;100.00
64521;BME280;50896;46.714;17.322;2023-01-28T07:16:10;100841.75;;;-0.47;100.00
64521;BME280;50896;46.714;17.322;2023-01-28T07:18:37;100836.94;;;-0.55;100.00
64521;BME280;50896;46.714;17.322;2023-01-28T07:21:04;100837.84;;;-0.56;100.00
64521;BME280;50896;46.714;17.322;2023-01-28T07:23:30;100837.22;;;-0.44;100.00
64521;BME280;50896;46.714;17.322;2023-01-28T07:26:04;100840.16;;;-0.50;100.00
64521;BME280;50896;46.714;17.322;2023-01-28T07:28:31;100854.97;;;-0.50;100.00
64521;BME280;50896;46.714;17.322;2023-01-28T07:30:58;100855.56;;;-0.45;100.00
64521;BME280;50896;46.714;17.322;2023-01-28T07:33:25;100855.75;;;-0.48;100.00
64521;BME280;50896;46.714;17.322;2023-01-28T07:35:52;100859.19;;;-0.48;100.00
64521;BME280;50896;46.714;17.322;2023-01-28T07:38:18;100871.16;;;-0.44;100.00
64521;BME280;50896;46.714;17.322;2023-01-28T07:40:46;100866.84;;;-0.45;100.00
64521;BME280;50896;46.714;17.322;2023-01-28T07:43:13;100869.81;;;-0.51;100.00
64521;BME280;50896;46.714;17.322;2023-01-28T07:45:40;100859.19;;;-0.48;100.00
64521;BME280;50896;46.714;17.322;2023-01-28T07:48:09;100876.81;;;-0.52;100.00
64521;BME280;50896;46.714;17.322;2023-01-28T07:50:37;100879.25;;;-0.48;100.00
64521;BME280;50896;46.714;17.322;2023-01-28T07:53:07;100880.09;;;-0.48;100.00
64521;BME280;50896;46.714;17.322;2023-01-28T07:55:34;100885.00;;;-0.42;100.00
64521;BME280;50896;46.714;17.322;2023-01-28T07:58:03;100887.47;;;-0.39;100.00
64521;BME280;50896;46.714;17.322;2023-01-28T08:00:31;100876.22;;;-0.41;100.00
64521;BME280;50896;46.714;17.322;2023-01-28T08:03:00;100881.22;;;-0.36;100.00
64521;BME280;50896;46.714;17.322;2023-01-28T08:05:36;100884.84;;;-0.39;100.00
64521;BME280;50896;46.714;17.322;2023-01-28T08:08:07;100883.06;;;-0.38;100.00
64521;BME280;50896;46.714;17.322;2023-01-28T08:10:36;100890.72;;;-0.35;100.00
64521;BME280;50896;46.714;17.322;2023-01-28T08:13:04;100890.72;;;-0.35;100.00
64521;BME280;50896;46.714;17.322;2023-01-28T08:15:31;100893.34;;;-0.35;100.00
64521;BME280;50896;46.714;17.322;2023-01-28T08:18:03;100887.13;;;-0.32;100.00
64521;BME280;50896;46.714;17.322;2023-01-28T08:20:30;100891.19;;;-0.27;100.00
64521;BME280;50896;46.714;17.322;2023-01-28T08:23:24;100893.03;;;-0.29;100.00
64521;BME280;50896;46.714;17.322;2023-01-28T08:25:57;100892.13;;;-0.28;100.00
64521;BME280;50896;46.714;17.322;2023-01-28T08:28:24;100886.91;;;-0.28;100.00
64521;BME280;50896;46.714;17.322;2023-01-28T08:30:51;100892.78;;;-0.24;100.00
64521;BME280;50896;46.714;17.322;2023-01-28T08:33:19;100899.88;;;-0.26;100.00
64521;BME280;50896;46.714;17.322;2023-01-28T08:35:46;100891.88;;;-0.23;100.00
64521;BME280;50896;46.714;17.322;2023-01-28T08:38:13;100897.09;;;-0.23;100.00
64521;BME280;50896;46.714;17.322;2023-01-28T08:40:43;100902.34;;;-0.23;100.00
64521;BME280;50896;46.714;17.322;2023-01-28T08:43:10;100899.53;;;-0.20;100.00
64521;BME280;50896;46.714;17.322;2023-01-28T08:45:38;100892.53;;;-0.20;100.00
64521;BME280;50896;46.714;17.322;2023-01-28T08:48:08;100898.94;;;-0.25;100.00
64521;BME280;50896;46.714;17.322;2023-01-28T08:50:38;100904.69;;;-0.19;100.00
64521;BME280;50896;46.714;17.322;2023-01-28T08:53:09;100901.91;;;-0.15;100.00
64521;BME280;50896;46.714;17.322;2023-01-28T08:55:36;100902.59;;;-0.12;100.00
64521;BME280;50896;46.714;17.322;2023-01-28T08:58:05;100900.16;;;-0.15;100.00
64521;BME280;50896;46.714;17.322;2023-01-28T09:00:32;100903.78;;;-0.18;100.00
64521;BME280;50896;46.714;17.322;2023-01-28T09:02:59;100907.56;;;-0.23;100.00
64521;BME280;50896;46.714;17.322;2023-01-28T09:05:29;100910.53;;;-0.13;100.00
64521;BME280;50896;46.714;17.322;2023-01-28T09:08:05;100914.16;;;-0.16;100.00
64521;BME280;50896;46.714;17.322;2023-01-28T09:10:32;100913.22;;;-0.15;100.00
64521;BME280;50896;46.714;17.322;2023-01-28T09:13:07;100903.69;;;-0.16;100.00
64521;BME280;50896;46.714;17.322;2023-01-28T09:15:34;100919.97;;;-0.11;100.00
64521;BME280;50896;46.714;17.322;2023-01-28T09:18:02;100912.34;;;-0.15;100.00
64521;BME280;50896;46.714;17.322;2023-01-28T09:20:29;100917.38;;;-0.11;100.00
64521;BME280;50896;46.714;17.322;2023-01-28T09:22:57;100921.81;;;-0.13;100.00
64521;BME280;50896;46.714;17.322;2023-01-28T09:25:24;100922.31;;;-0.22;100.00
64521;BME280;50896;46.714;17.322;2023-01-28T09:27:51;100924.69;;;-0.18;100.00
64521;BME280;50896;46.714;17.322;2023-01-28T09:30:18;100928.75;;;-0.12;100.00
64521;BME280;50896;46.714;17.322;2023-01-28T09:32:49;100926.88;;;-0.10;100.00
64521;BME280;50896;46.714;17.322;2023-01-28T09:35:16;100921.81;;;-0.13;100.00
64521;BME280;50896;46.714;17.322;2023-01-28T09:37:43;100923.59;;;-0.13;100.00
64521;BME280;50896;46.714;17.322;2023-01-28T09:40:19;100917.28;;;-0.09;100.00
64521;BME280;50896;46.714;17.322;2023-01-28T09:45:43;100915.41;;;-0.07;100.00
64521;BME280;50896;46.714;17.322;2023-01-28T09:48:23;100917.03;;;-0.05;100.00
64521;BME280;50896;46.714;17.322;2023-01-28T09:50:56;100923.88;;;-0.02;100.00
64521;BME280;50896;46.714;17.322;2023-01-28T09:53:28;100922.03;;;0.00;100.00
64521;BME280;50896;46.714;17.322;2023-01-28T09:56:25;100923.69;;;0.01;100.00
64521;BME280;50896;46.714;17.322;2023-01-28T09:58:57;100923.19;;;-0.06;100.00
64521;BME280;50896;46.714;17.322;2023-01-28T10:01:45;100918.97;;;-0.08;100.00
64521;BME280;50896;46.714;17.322;2023-01-28T10:04:43;100929.00;;;-0.01;100.00
64521;BME280;50896;46.714;17.322;2023-01-28T10:12:48;100922.69;;;0.04;100.00
64521;BME280;50896;46.714;17.322;2023-01-28T10:18:00;100929.19;;;-0.04;100.00
64521;BME280;50896;46.714;17.322;2023-01-28T10:23:15;100932.50;;;0.00;100.00
64521;BME280;50896;46.714;17.322;2023-01-28T10:25:45;100926.09;;;0.06;100.00
64521;BME280;50896;46.714;17.322;2023-01-28T10:28:23;100930.22;;;0.10;100.00
64521;BME280;50896;46.714;17.322;2023-01-28T10:30:51;100930.53;;;0.04;100.00
64521;BME280;50896;46.714;17.322;2023-01-28T10:33:32;100922.88;;;0.01;100.00
64521;BME280;50896;46.714;17.322;2023-01-28T10:36:02;100916.72;;;0.02;100.00
64521;BME280;50896;46.714;17.322;2023-01-28T10:38:30;100920.88;;;0.06;100.00
64521;BME280;50896;46.714;17.322;2023-01-28T10:41:00;100919.69;;;0.11;100.00
64521;BME280;50896;46.714;17.322;2023-01-28T10:43:32;100922.63;;;0.05;100.00
64521;BME280;50896;46.714;17.322;2023-01-28T10:49:18;100913.84;;;0.06;100.00
64521;BME280;50896;46.714;17.322;2023-01-28T10:51:48;100922.38;;;0.10;100.00
64521;BME280;50896;46.714;17.322;2023-01-28T10:54:27;100925.66;;;0.13;100.00
64521;BME280;50896;46.714;17.322;2023-01-28T10:57:02;100922.22;;;0.13;100.00
64521;BME280;50896;46.714;17.322;2023-01-28T10:59:33;100926.59;;;0.12;100.00
64521;BME280;50896;46.714;17.322;2023-01-28T11:02:30;100916.72;;;0.17;100.00
64521;BME280;50896;46.714;17.322;2023-01-28T11:05:13;100921.13;;;0.17;100.00
64521;BME280;50896;46.714;17.322;2023-01-28T11:07:43;100920.03;;;0.21;100.00
64521;BME280;50896;46.714;17.322;2023-01-28T11:10:30;100921.22;;;0.15;100.00
64521;BME280;50896;46.714;17.322;2023-01-28T11:13:03;100910.50;;;0.20;100.00
64521;BME280;50896;46.714;17.322;2023-01-28T11:15:31;100909.81;;;0.16;100.00
64521;BME280;50896;46.714;17.322;2023-01-28T11:18:01;100920.13;;;0.20;100.00
64521;BME280;50896;46.714;17.322;2023-01-28T11:20:37;100916.16;;;0.28;100.00
64521;BME280;50896;46.714;17.322;2023-01-28T11:23:05;100910.16;;;0.26;100.00
64521;BME280;50896;46.714;17.322;2023-01-28T11:25:35;100914.94;;;0.18;100.00
64521;BME280;50896;46.714;17.322;2023-01-28T11:28:17;100917.50;;;0.20;100.00
64521;BME280;50896;46.714;17.322;2023-01-28T11:30:50;100917.50;;;0.20;100.00
64521;BME280;50896;46.714;17.322;2023-01-28T11:33:22;100914.91;;;0.20;100.00
64521;BME280;50896;46.714;17.322;2023-01-28T11:36:05;100904.09;;;0.26;100.00
64521;BME280;50896;46.714;17.322;2023-01-28T11:38:32;100908.47;;;0.25;100.00
64521;BME280;50896;46.714;17.322;2023-01-28T11:40:59;100897.25;;;0.23;100.00
64521;BME280;50896;46.714;17.322;2023-01-28T11:43:29;100898.84;;;0.26;100.00
64521;BME280;50896;46.714;17.322;2023-01-28T11:49:07;100886.59;;;0.26;100.00
64521;BME280;50896;46.714;17.322;2023-01-28T12:02:01;100898.41;;;0.33;100.00
64521;BME280;50896;46.714;17.322;2023-01-28T12:13:04;100896.22;;;0.42;100.00
64521;BME280;50896;46.714;17.322;2023-01-28T12:24:08;100896.41;;;0.39;100.00
64521;BME280;50896;46.714;17.322;2023-01-28T12:35:27;100889.47;;;0.38;100.00
64521;BME280;50896;46.714;17.322;2023-01-28T12:40:52;100896.66;;;0.34;100.00
64521;BME280;50896;46.714;17.322;2023-01-28T12:46:55;100903.50;;;0.37;100.00
64521;BME280;50896;46.714;17.322;2023-01-28T12:52:17;100908.03;;;0.33;100.00
64521;BME280;50896;46.714;17.322;2023-01-28T12:57:37;100906.13;;;0.37;100.00
64521;BME280;50896;46.714;17.322;2023-01-28T13:00:35;100896.75;;;0.32;100.00
64521;BME280;50896;46.714;17.322;2023-01-28T13:06:11;100906.34;;;0.32;100.00
64521;BME280;50896;46.714;17.322;2023-01-28T13:08:40;100910.41;;;0.38;100.00
64521;BME280;50896;46.714;17.322;2023-01-28T13:11:14;100905.84;;;0.41;100.00
64521;BME280;50896;46.714;17.322;2023-01-28T13:13:42;100910.41;;;0.38;100.00
64521;BME280;50896;46.714;17.322;2023-01-28T13:16:11;100927.19;;;0.33;100.00
64521;BME280;50896;46.714;17.322;2023-01-28T13:26:29;100912.78;;;0.42;100.00
64521;BME280;50896;46.714;17.322;2023-01-28T13:29:08;100912.97;;;0.39;100.00
64521;BME280;50896;46.714;17.322;2023-01-28T13:31:48;100914.09;;;0.33;100.00
64521;BME280;50896;46.714;17.322;2023-01-28T13:37:01;100929.81;;;0.33;100.00
64521;BME280;50896;46.714;17.322;2023-01-28T13:39:33;100930.66;;;0.34;100.00
64521;BME280;50896;46.714;17.322;2023-01-28T13:42:10;100932.59;;;0.30;100.00
64521;BME280;50896;46.714;17.322;2023-01-28T13:44:47;100938.44;;;0.36;100.00
64521;BME280;50896;46.714;17.322;2023-01-28T13:47:20;100939.13;;;0.39;100.00
64521;BME280;50896;46.714;17.322;2023-01-28T13:50:01;100947.78;;;0.40;100.00
64521;BME280;50896;46.714;17.322;2023-01-28T13:52:31;100947.19;;;0.34;100.00
64521;BME280;50896;46.714;17.322;2023-01-28T13:55:05;100942.13;;;0.31;100.00
64521;BME280;50896;46.714;17.322;2023-01-28T14:16:32;100970.81;;;0.33;100.00
64521;BME280;50896;46.714;17.322;2023-01-28T14:19:03;100977.56;;;0.37;100.00
64521;BME280;50896;46.714;17.322;2023-01-28T14:21:32;100969.91;;;0.34;100.00
64521;BME280;50896;46.714;17.322;2023-01-28T14:24:01;100975.22;;;0.32;100.00
64521;BME280;50896;46.714;17.322;2023-01-28T14:26:48;100980.44;;;0.32;100.00
64521;BME280;50896;46.714;17.322;2023-01-28T14:32:15;100983.66;;;0.38;100.00
64521;BME280;50896;46.714;17.322;2023-01-28T14:34:43;100985.50;;;0.36;100.00
64521;BME280;50896;46.714;17.322;2023-01-28T14:37:13;100990.91;;;0.32;100.00
64521;BME280;50896;46.714;17.322;2023-01-28T14:39:52;100991.75;;;0.33;100.00
64521;BME280;50896;46.714;17.322;2023-01-28T14:42:23;100990.66;;;0.37;100.00
64521;BME280;50896;46.714;17.322;2023-01-28T14:45:12;100993.88;;;0.42;100.00
64521;BME280;50896;46.714;17.322;2023-01-28T14:50:24;100992.00;;;0.44;100.00
64521;BME280;50896;46.714;17.322;2023-01-28T14:53:13;100992.09;;;0.43;100.00
64521;BME280;50896;46.714;17.322;2023-01-28T14:58:31;101004.25;;;0.44;100.00
64521;BME280;50896;46.714;17.322;2023-01-28T15:01:01;100999.13;;;0.42;100.00
64521;BME280;50896;46.714;17.322;2023-01-28T15:03:29;101006.63;;;0.48;100.00
64521;BME280;50896;46.714;17.322;2023-01-28T15:06:13;100998.78;;;0.48;100.00
64521;BME280;50896;46.714;17.322;2023-01-28T15:08:40;101004.88;;;0.49;100.00
64521;BME280;50896;46.714;17.322;2023-01-28T15:11:09;101009.41;;;0.45;100.00
64521;BME280;50896;46.714;17.322;2023-01-28T15:13:41;101009.50;;;0.44;100.00